Merrill, WI (54452)

1:35 PM CST on February 11, 2016 (GMT -0600)
West Taylor Merrill | | Change Station
CLOSE
Current Station
Personal Weather Station
Location: Merrill, WI
Elevation: 1309 ft
Nearby Weather Stations

Elev 1309 ft 45.19 °N, 89.71 °W | Updated 6 seconds ago

Clear
Clear
18.5 °F
Feels Like 12 °F
N
4.3
Wind Variable Wind from SW
Gusts 4.9 mph

Today
High -- | Low -- °F
--% Chance of Precip.
Yesterday
High -- | Low -- °F
Precip. -- in
Pressure 30.18 in
Visibility 10.0 miles
Clouds Clear
Windchill 12 °F
Dew Point -13 °F
Humidity 23%
Rainfall 0.00 in
Snow Depth Not available.
7:06 AM 5:20 PM
Waxing Crescent, 14% visible
METAR KRRL 111915Z AUTO 29003KT 10SM CLR M09/M21 A3018 RMK AO2 T10871206
Pressure 30.18 in
Visibility 10.0 miles
Clouds Clear
Windchill 12 °F
Dew Point -13 °F
Humidity 23%
Rainfall 0.00 in
Snow Depth Not available.
7:06 AM 5:20 PM
Waxing Crescent, 14% visible
METAR KRRL 111915Z AUTO 29003KT 10SM CLR M09/M21 A3018 RMK AO2 T10871206

10-Day Weather Forecast

Almanac

Astronomy

Feb. 11, 2016 Rise Set
Actual Time
Civil Twilight
Nautical Twilight
Astronomical Twilight
Moon
Length of Visible Light
Length of Day
Tomorrow will be .
, % of the Moon is Illuminated

Today's Extremes

State Highs State Lows

Community

WunderPhotos

Upload Photos

1,892,143 photos uploaded!

WunderBlog® & News

Nearby

Air Quality

  Air Quality AQ Index Pollutant
Not available.

Snow Depth

Station Depth Elevation

Earthquake Activity

City Distance Mag. Time & Date
Minimum magnitude displayed is 2.5.

Coastal Water Temperatures

Place Temperature

Stations

Nearby Weather Stations

Station Location Temp. Windchill Dew Point Humidity Wind Precip. Elev Updated Type
                   

Watches & Warnings

There are currently no watches in effect.